Time;durP1;ratioP1;P1;durP2;ratioP2;P2;SDS_P1;SDS_P2;PMS_P1;PMS_P2;Temp;Humidity;BMP_temperature;BMP_pressure;BME280_temperature;BME280_humidity;BME280_pressure;Samples;Min_cycle;Max_cycle;Signal;HPM_P1;HPM_P2
2021/12/03 00:01:52;;;;;;;2.13;1.17;;;;;;;;;;4985720;28;20019;-72
2021/12/03 00:04:18;;;;;;;4.40;1.20;;;;;;;;;;4986471;28;20058;-71
2021/12/03 00:06:43;;;;;;;1.75;0.95;;;;;;;;;;4987056;28;20497;-71
2021/12/03 00:09:09;;;;;;;8.25;1.83;;;;;;;;;;4986536;28;20169;-72
2021/12/03 00:11:35;;;;;;;2.65;1.30;;;;;;;;;;4968978;28;20028;-71
2021/12/03 00:14:01;;;;;;;1.92;1.27;;;;;;;;;;4987071;28;20055;-71
2021/12/03 00:16:27;;;;;;;2.03;1.30;;;;;;;;;;4986905;28;20038;-72
2021/12/03 00:18:53;;;;;;;4.38;1.27;;;;;;;;;;4969347;28;20399;-72
2021/12/03 00:21:18;;;;;;;2.80;1.40;;;;;;;;;;4969370;28;20146;-71
2021/12/03 00:23:44;;;;;;;3.88;1.05;;;;;;;;;;4986640;28;20037;-71
2021/12/03 00:26:10;;;;;;;1.90;1.10;;;;;;;;;;4969215;28;20026;-71
2021/12/03 00:28:37;;;;;;;3.80;1.40;;;;;;;;;;4986300;28;20038;-72
2021/12/03 00:31:03;;;;;;;1.77;0.90;;;;;;;;;;4968642;28;20042;-71
2021/12/03 00:33:30;;;;;;;2.78;1.30;;;;;;;;;;4968905;28;20037;-72
2021/12/03 00:36:03;;;;;;;2.45;1.13;;;;;;;;;;4986368;28;20067;-73
2021/12/03 00:38:30;;;;;;;2.88;1.30;;;;;;;;;;4968809;28;20042;-72
2021/12/03 00:40:57;;;;;;;2.38;1.40;;;;;;;;;;4986275;28;20046;-72
2021/12/03 00:43:23;;;;;;;3.00;1.20;;;;;;;;;;4968742;28;20066;-72
2021/12/03 00:45:51;;;;;;;2.45;1.30;;;;;;;;;;4986703;28;20034;-72
2021/12/03 00:48:16;;;;;;;2.38;1.20;;;;;;;;;;4968884;28;20035;-72
2021/12/03 00:50:42;;;;;;;1.48;1.02;;;;;;;;;;4986408;28;20083;-71
2021/12/03 00:53:07;;;;;;;1.70;1.10;;;;;;;;;;4986321;28;20058;-72
2021/12/03 00:55:34;;;;;;;2.50;1.10;;;;;;;;;;4986333;28;20069;-71
2021/12/03 00:58:00;;;;;;;2.55;1.02;;;;;;;;;;4986236;28;20027;-71
2021/12/03 01:00:29;;;;;;;1.77;1.00;;;;;;;;;;4968627;28;20031;-71
2021/12/03 01:02:56;;;;;;;2.40;1.05;;;;;;;;;;4968567;28;20078;-72
2021/12/03 01:05:22;;;;;;;1.13;0.90;;;;;;;;;;4986076;28;20041;-72
2021/12/03 01:07:48;;;;;;;3.08;1.00;;;;;;;;;;4986217;28;20035;-71
2021/12/03 01:10:14;;;;;;;4.30;1.13;;;;;;;;;;4985867;28;20026;-71
2021/12/03 01:12:40;;;;;;;1.52;0.80;;;;;;;;;;4986142;28;20046;-71
2021/12/03 01:15:09;;;;;;;1.35;1.00;;;;;;;;;;4984994;28;20043;-72
2021/12/03 01:17:35;;;;;;;1.20;0.98;;;;;;;;;;4968429;28;20034;-71
2021/12/03 01:20:04;;;;;;;2.70;1.15;;;;;;;;;;4985538;28;20110;-71
2021/12/03 01:22:30;;;;;;;3.05;1.17;;;;;;;;;;4968355;28;20031;-71
2021/12/03 01:24:56;;;;;;;4.28;0.90;;;;;;;;;;4968174;28;20043;-71
2021/12/03 01:27:21;;;;;;;3.65;1.27;;;;;;;;;;4985502;28;20035;-71
2021/12/03 01:29:47;;;;;;;1.42;0.90;;;;;;;;;;4968095;28;20038;-70
2021/12/03 01:32:13;;;;;;;7.32;1.38;;;;;;;;;;4985120;28;20047;-71
2021/12/03 01:34:38;;;;;;;2.03;0.90;;;;;;;;;;4985731;28;20098;-71
2021/12/03 01:37:04;;;;;;;1.70;1.00;;;;;;;;;;4985619;28;20030;-71
2021/12/03 01:39:30;;;;;;;2.08;1.00;;;;;;;;;;4984958;28;20056;-72
2021/12/03 01:41:55;;;;;;;2.78;1.13;;;;;;;;;;4985666;28;20030;-71
2021/12/03 01:44:21;;;;;;;2.50;1.10;;;;;;;;;;4985117;28;20062;-72
2021/12/03 01:46:46;;;;;;;3.53;1.52;;;;;;;;;;4985009;28;20031;-72
2021/12/03 01:49:14;;;;;;;1.98;0.90;;;;;;;;;;4967764;28;20041;-71
2021/12/03 01:51:40;;;;;;;1.08;0.80;;;;;;;;;;4967473;28;20058;-70
2021/12/03 01:54:06;;;;;;;2.35;0.80;;;;;;;;;;4967717;28;20035;-71
2021/12/03 01:56:32;;;;;;;1.58;0.85;;;;;;;;;;4985346;28;20019;-70
2021/12/03 01:58:58;;;;;;;1.98;1.00;;;;;;;;;;4984685;28;20486;-71
2021/12/03 02:01:27;;;;;;;2.05;0.85;;;;;;;;;;4984639;28;20063;-70
2021/12/03 02:03:55;;;;;;;2.15;0.73;;;;;;;;;;4984901;28;20035;-71
2021/12/03 02:06:22;;;;;;;0.55;0.55;;;;;;;;;;4985142;28;20031;-71
2021/12/03 02:08:48;;;;;;;1.50;0.80;;;;;;;;;;4984659;28;20040;-70
2021/12/03 02:11:14;;;;;;;1.20;0.65;;;;;;;;;;4984705;28;20415;-71
2021/12/03 02:13:40;;;;;;;3.60;0.90;;;;;;;;;;4984693;28;20035;-71
2021/12/03 02:16:07;;;;;;;2.72;0.90;;;;;;;;;;4984526;28;20029;-71
2021/12/03 02:18:33;;;;;;;3.05;0.95;;;;;;;;;;4967298;28;20027;-71
2021/12/03 02:21:01;;;;;;;1.70;0.70;;;;;;;;;;4984806;28;20042;-70
2021/12/03 02:23:28;;;;;;;0.70;0.70;;;;;;;;;;4967208;28;20122;-71
2021/12/03 02:25:58;;;;;;;1.25;0.60;;;;;;;;;;4983833;28;20037;-70
2021/12/03 02:28:27;;;;;;;1.98;0.68;;;;;;;;;;4984158;28;20023;-71
2021/12/03 02:30:54;;;;;;;2.30;0.70;;;;;;;;;;4984708;28;20070;-71
2021/12/03 02:33:19;;;;;;;2.25;0.80;;;;;;;;;;4984161;28;20026;-70
2021/12/03 02:35:45;;;;;;;0.82;0.60;;;;;;;;;;4983765;28;20015;-71
2021/12/03 02:38:14;;;;;;;1.02;0.63;;;;;;;;;;4984250;28;20672;-71
2021/12/03 02:40:42;;;;;;;2.85;0.70;;;;;;;;;;4962822;29;20059;-71
2021/12/03 02:43:08;;;;;;;1.13;0.80;;;;;;;;;;4965464;28;20036;-71
2021/12/03 02:45:34;;;;;;;2.65;0.70;;;;;;;;;;4984261;28;20056;-73
2021/12/03 02:48:04;;;;;;;2.60;0.60;;;;;;;;;;4984247;28;20081;-70
2021/12/03 02:50:30;;;;;;;2.05;0.80;;;;;;;;;;4984380;28;20085;-71
2021/12/03 02:52:56;;;;;;;2.78;0.85;;;;;;;;;;4984620;28;20029;-72
2021/12/03 02:55:23;;;;;;;1.63;0.90;;;;;;;;;;4984081;28;20026;-71
2021/12/03 02:57:49;;;;;;;1.10;0.75;;;;;;;;;;4984153;28;20027;-71
2021/12/03 03:00:18;;;;;;;1.95;0.80;;;;;;;;;;4983857;28;20101;-71
2021/12/03 03:02:45;;;;;;;1.40;0.80;;;;;;;;;;4966364;28;20042;-70
2021/12/03 03:05:12;;;;;;;2.88;0.80;;;;;;;;;;4984293;28;20023;-71
2021/12/03 03:07:38;;;;;;;1.05;0.70;;;;;;;;;;4984080;28;20106;-72
2021/12/03 03:10:08;;;;;;;2.05;0.85;;;;;;;;;;4984395;28;20050;-71
2021/12/03 03:12:34;;;;;;;2.35;0.63;;;;;;;;;;4984317;28;20070;-70
2021/12/03 03:15:00;;;;;;;1.42;0.80;;;;;;;;;;4984208;28;20035;-71
2021/12/03 03:17:28;;;;;;;0.85;0.60;;;;;;;;;;4966402;28;20023;-71
2021/12/03 03:19:55;;;;;;;2.28;1.05;;;;;;;;;;4966764;28;20035;-71
2021/12/03 03:22:22;;;;;;;1.27;0.93;;;;;;;;;;4966709;28;20086;-71
2021/12/03 03:24:48;;;;;;;1.05;0.82;;;;;;;;;;4966341;28;20037;-71
2021/12/03 03:27:15;;;;;;;1.92;0.90;;;;;;;;;;4983932;28;20023;-72
2021/12/03 03:29:43;;;;;;;1.27;0.80;;;;;;;;;;4983725;28;20575;-71
2021/12/03 03:32:09;;;;;;;0.85;0.60;;;;;;;;;;4983763;28;20022;-71
2021/12/03 03:34:35;;;;;;;0.90;0.57;;;;;;;;;;4966414;28;20082;-70
2021/12/03 03:37:01;;;;;;;0.80;0.60;;;;;;;;;;4966419;28;20027;-70
2021/12/03 03:39:26;;;;;;;1.50;0.80;;;;;;;;;;4987322;28;20097;-70
2021/12/03 03:41:52;;;;;;;1.38;0.88;;;;;;;;;;4987560;28;20042;-71
2021/12/03 03:44:18;;;;;;;2.28;0.70;;;;;;;;;;4970092;28;20526;-71
2021/12/03 03:46:45;;;;;;;3.92;0.95;;;;;;;;;;4987408;28;20058;-71
2021/12/03 03:49:11;;;;;;;2.25;0.80;;;;;;;;;;4969741;28;20027;-70
2021/12/03 03:51:38;;;;;;;1.75;1.00;;;;;;;;;;4987051;28;20066;-70
2021/12/03 03:54:05;;;;;;;0.70;0.55;;;;;;;;;;4986689;28;20027;-71
2021/12/03 03:56:30;;;;;;;1.92;0.80;;;;;;;;;;4986961;28;20023;-70
2021/12/03 03:58:56;;;;;;;2.72;0.90;;;;;;;;;;4987045;28;20037;-71
2021/12/03 04:01:22;;;;;;;1.40;0.80;;;;;;;;;;4987018;28;20050;-70
2021/12/03 04:03:48;;;;;;;1.00;0.70;;;;;;;;;;4987011;28;20034;-70
2021/12/03 04:06:15;;;;;;;1.38;0.60;;;;;;;;;;4986919;28;20035;-70
2021/12/03 04:08:42;;;;;;;1.63;0.80;;;;;;;;;;4987025;28;20055;-70
2021/12/03 04:11:08;;;;;;;2.15;0.80;;;;;;;;;;4987032;28;20027;-70
2021/12/03 04:13:34;;;;;;;1.25;0.85;;;;;;;;;;4987113;28;20053;-72
2021/12/03 04:15:59;;;;;;;1.10;0.60;;;;;;;;;;4986932;28;20081;-70
2021/12/03 04:18:25;;;;;;;2.67;1.77;;;;;;;;;;4987000;28;20031;-70
2021/12/03 04:20:52;;;;;;;2.40;0.70;;;;;;;;;;4986911;28;20094;-70
2021/12/03 04:23:19;;;;;;;1.40;0.85;;;;;;;;;;4986926;28;20111;-69
2021/12/03 04:25:49;;;;;;;1.17;0.75;;;;;;;;;;4969149;28;20085;-70
2021/12/03 04:28:16;;;;;;;0.68;0.60;;;;;;;;;;4986728;28;20027;-70
2021/12/03 04:30:42;;;;;;;1.02;0.70;;;;;;;;;;4987037;28;20034;-70
2021/12/03 04:33:08;;;;;;;2.75;0.80;;;;;;;;;;4986511;28;20395;-70
2021/12/03 04:35:35;;;;;;;1.10;0.55;;;;;;;;;;4969447;28;20030;-72
2021/12/03 04:38:01;;;;;;;1.35;0.75;;;;;;;;;;4986481;28;20109;-69
2021/12/03 04:40:28;;;;;;;1.20;0.60;;;;;;;;;;4986654;28;20051;-70
2021/12/03 04:42:54;;;;;;;1.02;0.68;;;;;;;;;;4968971;28;20035;-70
2021/12/03 04:45:22;;;;;;;0.98;0.60;;;;;;;;;;4986150;28;20115;-71
2021/12/03 04:47:49;;;;;;;1.35;0.70;;;;;;;;;;4986273;28;20528;-71
2021/12/03 04:50:16;;;;;;;1.63;0.75;;;;;;;;;;4968560;28;20023;-70
2021/12/03 04:52:42;;;;;;;2.67;1.10;;;;;;;;;;4984809;28;20036;-71
2021/12/03 04:55:09;;;;;;;1.67;0.85;;;;;;;;;;4969107;28;20037;-70
2021/12/03 04:57:35;;;;;;;1.45;0.80;;;;;;;;;;4968948;28;20125;-71
2021/12/03 05:00:02;;;;;;;2.58;0.85;;;;;;;;;;4986205;28;20035;-71
2021/12/03 05:02:28;;;;;;;3.33;0.90;;;;;;;;;;4968809;28;20019;-70
2021/12/03 05:04:59;;;;;;;1.38;0.80;;;;;;;;;;4968944;28;20045;-71
2021/12/03 05:07:30;;;;;;;1.63;0.75;;;;;;;;;;4968622;28;20716;-70
2021/12/03 05:09:57;;;;;;;0.82;0.70;;;;;;;;;;4986209;28;20041;-71
2021/12/03 05:12:23;;;;;;;1.05;0.70;;;;;;;;;;4968727;28;20026;-70
2021/12/03 05:14:48;;;;;;;2.30;0.90;;;;;;;;;;4986165;28;20033;-70
2021/12/03 05:17:14;;;;;;;0.98;0.80;;;;;;;;;;4985782;28;20038;-71
2021/12/03 05:19:39;;;;;;;1.58;0.90;;;;;;;;;;4985942;28;20058;-71
2021/12/03 05:22:05;;;;;;;1.23;0.77;;;;;;;;;;4968460;28;20031;-71
2021/12/03 05:24:31;;;;;;;0.80;0.60;;;;;;;;;;4985876;28;20023;-70
2021/12/03 05:26:56;;;;;;;0.90;0.70;;;;;;;;;;4968251;28;20057;-70
2021/12/03 05:29:23;;;;;;;1.23;0.70;;;;;;;;;;4985644;28;20114;-71
2021/12/03 05:31:48;;;;;;;1.02;0.73;;;;;;;;;;4985500;28;20042;-70
2021/12/03 05:34:16;;;;;;;0.75;0.60;;;;;;;;;;4985838;28;20027;-69
2021/12/03 05:36:46;;;;;;;1.85;0.60;;;;;;;;;;4985438;28;20023;-69
2021/12/03 05:39:12;;;;;;;1.58;0.90;;;;;;;;;;4985348;28;20446;-69
2021/12/03 05:41:38;;;;;;;0.70;0.57;;;;;;;;;;4985339;28;20093;-70
2021/12/03 05:44:05;;;;;;;0.88;0.70;;;;;;;;;;4968255;28;20030;-71
2021/12/03 05:46:31;;;;;;;2.67;1.15;;;;;;;;;;4985071;28;20066;-70
2021/12/03 05:48:57;;;;;;;1.95;0.80;;;;;;;;;;4985411;28;20054;-70
2021/12/03 05:51:25;;;;;;;2.25;1.13;;;;;;;;;;4984857;28;20027;-70
2021/12/03 05:53:56;;;;;;;1.42;0.73;;;;;;;;;;4985279;28;20027;-72
2021/12/03 05:56:22;;;;;;;3.30;0.60;;;;;;;;;;4984454;28;20098;-70
2021/12/03 05:58:48;;;;;;;2.70;0.90;;;;;;;;;;4967696;28;20023;-70
2021/12/03 06:01:14;;;;;;;1.63;0.70;;;;;;;;;;4984027;28;20086;-69
2021/12/03 06:03:40;;;;;;;1.00;0.70;;;;;;;;;;4984905;28;20045;-69
2021/12/03 06:06:05;;;;;;;3.28;0.85;;;;;;;;;;4984369;28;20428;-69
2021/12/03 06:08:31;;;;;;;1.50;0.73;;;;;;;;;;4984561;28;20026;-71
2021/12/03 06:10:56;;;;;;;1.58;0.70;;;;;;;;;;4984087;28;20069;-71
2021/12/03 06:13:22;;;;;;;3.03;0.70;;;;;;;;;;4984144;28;20023;-70
2021/12/03 06:15:48;;;;;;;1.10;0.90;;;;;;;;;;4984587;28;20057;-71
2021/12/03 06:18:13;;;;;;;1.08;0.60;;;;;;;;;;4966613;28;20105;-70
2021/12/03 06:20:39;;;;;;;1.75;0.70;;;;;;;;;;4967433;28;20097;-71
2021/12/03 06:23:05;;;;;;;1.17;0.60;;;;;;;;;;4984626;28;20019;-70
2021/12/03 06:25:30;;;;;;;1.08;0.80;;;;;;;;;;4967030;28;20046;-71
2021/12/03 06:27:58;;;;;;;1.35;0.70;;;;;;;;;;4983897;28;20037;-72
2021/12/03 06:30:24;;;;;;;0.82;0.70;;;;;;;;;;4966825;28;20033;-70
2021/12/03 06:32:50;;;;;;;1.20;0.70;;;;;;;;;;4966941;28;20027;-71
2021/12/03 06:35:17;;;;;;;0.85;0.60;;;;;;;;;;4984374;28;20074;-70
2021/12/03 06:37:43;;;;;;;2.15;0.70;;;;;;;;;;4966557;28;20732;-71
2021/12/03 06:40:15;;;;;;;1.48;0.80;;;;;;;;;;4965435;28;20052;-71
2021/12/03 06:42:41;;;;;;;0.75;0.52;;;;;;;;;;4966183;28;20065;-69
2021/12/03 06:45:08;;;;;;;1.45;0.70;;;;;;;;;;4983786;28;20039;-70
2021/12/03 06:47:34;;;;;;;0.82;0.60;;;;;;;;;;4983520;28;20031;-71
2021/12/03 06:50:02;;;;;;;2.03;0.70;;;;;;;;;;4984510;28;20089;-70
2021/12/03 06:52:28;;;;;;;3.88;1.20;;;;;;;;;;4966489;28;20058;-69
2021/12/03 06:54:59;;;;;;;1.45;0.82;;;;;;;;;;4983997;28;20086;-70
2021/12/03 06:57:24;;;;;;;1.30;0.80;;;;;;;;;;4983389;28;20086;-70
2021/12/03 06:59:50;;;;;;;1.45;0.90;;;;;;;;;;4983674;28;20038;-70
2021/12/03 07:02:16;;;;;;;1.50;0.90;;;;;;;;;;4983793;28;20027;-69
2021/12/03 07:04:43;;;;;;;1.20;0.70;;;;;;;;;;4983664;28;20031;-70
2021/12/03 07:07:10;;;;;;;1.13;0.77;;;;;;;;;;4983385;28;20030;-68
2021/12/03 07:09:35;;;;;;;1.88;1.02;;;;;;;;;;4983826;28;20027;-71
2021/12/03 07:12:01;;;;;;;4.47;1.00;;;;;;;;;;4985805;28;20110;-68
2021/12/03 07:14:27;;;;;;;1.65;0.90;;;;;;;;;;4988106;28;20039;-69
2021/12/03 07:16:52;;;;;;;1.33;0.88;;;;;;;;;;4969640;28;20030;-69
2021/12/03 07:19:18;;;;;;;1.95;0.95;;;;;;;;;;4987895;28;20038;-68
2021/12/03 07:21:43;;;;;;;2.47;0.95;;;;;;;;;;4987560;28;20027;-68
2021/12/03 07:24:09;;;;;;;2.47;0.75;;;;;;;;;;4988061;28;20111;-69
2021/12/03 07:26:35;;;;;;;5.38;0.80;;;;;;;;;;4969957;28;20046;-69
2021/12/03 07:29:00;;;;;;;1.08;0.80;;;;;;;;;;4987603;28;20043;-69
2021/12/03 07:31:26;;;;;;;1.20;0.90;;;;;;;;;;4987219;28;20581;-69
2021/12/03 07:33:54;;;;;;;1.33;0.95;;;;;;;;;;4987563;28;20043;-70
2021/12/03 07:36:20;;;;;;;1.73;1.08;;;;;;;;;;4969798;28;20102;-69
2021/12/03 07:38:46;;;;;;;2.97;1.00;;;;;;;;;;4987221;28;20031;-68
2021/12/03 07:41:12;;;;;;;2.25;0.95;;;;;;;;;;4987442;28;20031;-68
2021/12/03 07:43:37;;;;;;;1.48;1.05;;;;;;;;;;4985147;28;20093;-70
2021/12/03 07:46:03;;;;;;;2.17;0.85;;;;;;;;;;4986474;28;20054;-70
2021/12/03 07:48:32;;;;;;;2.25;1.00;;;;;;;;;;4987281;28;20058;-69
2021/12/03 07:50:58;;;;;;;1.40;0.70;;;;;;;;;;4969957;28;20022;-68
2021/12/03 07:53:24;;;;;;;1.05;0.70;;;;;;;;;;4985656;28;20043;-70
2021/12/03 07:55:51;;;;;;;0.85;0.68;;;;;;;;;;4986154;28;20038;-69
2021/12/03 07:58:18;;;;;;;2.00;1.08;;;;;;;;;;4985939;28;20037;-68
2021/12/03 08:00:45;;;;;;;1.80;0.85;;;;;;;;;;4987450;28;20106;-70
2021/12/03 08:03:12;;;;;;;1.45;0.73;;;;;;;;;;4967792;28;20031;-69
2021/12/03 08:05:37;;;;;;;1.77;0.80;;;;;;;;;;4968772;28;20490;-70
2021/12/03 08:08:04;;;;;;;2.78;1.00;;;;;;;;;;4987017;28;20034;-69
2021/12/03 08:10:30;;;;;;;2.95;1.10;;;;;;;;;;4986993;28;20023;-69
2021/12/03 08:12:55;;;;;;;3.13;0.90;;;;;;;;;;4986533;28;20475;-70
2021/12/03 08:15:22;;;;;;;2.92;1.05;;;;;;;;;;4986659;28;20099;-69
2021/12/03 08:17:49;;;;;;;1.75;1.20;;;;;;;;;;4986928;28;20066;-70
2021/12/03 08:20:16;;;;;;;2.20;1.15;;;;;;;;;;4986700;28;20039;-72
2021/12/03 08:22:43;;;;;;;3.05;1.30;;;;;;;;;;4986366;28;20023;-71
2021/12/03 08:25:09;;;;;;;2.63;1.10;;;;;;;;;;4969276;28;20031;-70
2021/12/03 08:27:35;;;;;;;1.45;1.10;;;;;;;;;;4968997;28;20029;-70
2021/12/03 08:30:04;;;;;;;1.60;1.00;;;;;;;;;;4985538;28;20054;-70
2021/12/03 08:32:30;;;;;;;2.33;1.00;;;;;;;;;;4968842;28;20034;-71
2021/12/03 08:34:55;;;;;;;2.58;1.35;;;;;;;;;;4986752;28;20094;-70
2021/12/03 08:37:21;;;;;;;3.08;1.10;;;;;;;;;;4969071;28;20061;-69
2021/12/03 08:39:47;;;;;;;3.05;0.95;;;;;;;;;;4968203;28;20057;-70
2021/12/03 08:42:12;;;;;;;1.98;1.13;;;;;;;;;;4985348;28;20015;-71
2021/12/03 08:44:38;;;;;;;2.05;1.10;;;;;;;;;;4985826;28;20022;-70
2021/12/03 08:47:06;;;;;;;2.58;1.50;;;;;;;;;;4985836;28;20022;-71
2021/12/03 08:54:50;;;;;;;2.08;1.27;;;;;;;;;;4985627;28;20031;-72
2021/12/03 08:57:37;;;;;;;3.38;1.42;;;;;;;;;;4985923;28;20098;-72
2021/12/03 09:00:10;;;;;;;3.53;1.40;;;;;;;;;;4984930;28;20046;-70
2021/12/03 09:02:36;;;;;;;2.45;1.35;;;;;;;;;;4967659;28;20089;-71
2021/12/03 09:05:01;;;;;;;3.15;1.50;;;;;;;;;;4967509;28;20078;-70
2021/12/03 09:07:27;;;;;;;2.85;1.13;;;;;;;;;;4968111;28;20025;-71
2021/12/03 09:09:53;;;;;;;2.65;1.20;;;;;;;;;;4967472;28;20027;-70
2021/12/03 09:12:18;;;;;;;2.42;1.10;;;;;;;;;;4985511;28;20054;-70
2021/12/03 09:15:08;;;;;;;2.58;1.30;;;;;;;;;;4985665;28;20062;-71
2021/12/03 09:20:04;;;;;;;1.55;1.00;;;;;;;;;;4984740;28;20531;-72
2021/12/03 09:25:03;;;;;;;1.08;0.80;;;;;;;;;;4984774;28;19914;-70
2021/12/03 09:27:29;;;;;;;1.33;0.82;;;;;;;;;;4966387;28;20079;-71
2021/12/03 09:29:56;;;;;;;1.20;0.90;;;;;;;;;;4984241;28;20022;-70
2021/12/03 09:32:31;;;;;;;2.92;0.82;;;;;;;;;;4984873;28;20090;-71
2021/12/03 09:34:57;;;;;;;1.52;0.95;;;;;;;;;;4967084;28;20030;-70
2021/12/03 09:37:24;;;;;;;1.63;0.90;;;;;;;;;;4984784;28;20042;-70
2021/12/03 09:39:50;;;;;;;2.78;0.80;;;;;;;;;;4984967;28;20054;-71
2021/12/03 09:42:18;;;;;;;2.45;0.80;;;;;;;;;;4985202;28;20029;-71
2021/12/03 09:44:45;;;;;;;3.97;1.08;;;;;;;;;;4966822;28;20050;-71
2021/12/03 09:47:13;;;;;;;1.17;0.98;;;;;;;;;;4983883;28;20058;-73
2021/12/03 09:49:39;;;;;;;2.65;0.93;;;;;;;;;;4967782;28;20112;-70
2021/12/03 09:54:46;;;;;;;5.28;1.08;;;;;;;;;;4985355;28;20045;-70
2021/12/03 10:13:42;;;;;;;1.73;0.93;;;;;;;;;;4984964;28;20530;-70
2021/12/03 10:18:50;;;;;;;1.00;0.80;;;;;;;;;;4985034;28;20039;-70
2021/12/03 10:24:36;;;;;;;1.40;0.93;;;;;;;;;;4983573;28;20041;-72
2021/12/03 10:27:52;;;;;;;2.38;1.00;;;;;;;;;;4984108;28;20038;-71
2021/12/03 10:44:17;;;;;;;1.92;0.80;;;;;;;;;;4983397;28;20129;-71
2021/12/03 10:57:23;;;;;;;0.82;0.65;;;;;;;;;;4984660;28;20035;-70
2021/12/03 14:11:33;;;;;;;2.05;1.23;;;;;;;;;;5019741;28;20053;-74
2021/12/03 14:54:19;;;;;;;1.73;0.93;;;;;;;;;;5017231;28;20030;-72
2021/12/03 14:57:05;;;;;;;2.10;1.10;;;;;;;;;;5022296;28;20025;-72
2021/12/03 14:59:32;;;;;;;1.55;0.88;;;;;;;;;;5004554;28;20038;-73
2021/12/03 15:02:12;;;;;;;1.60;1.00;;;;;;;;;;5022664;28;20022;-73
2021/12/03 15:04:57;;;;;;;1.73;1.00;;;;;;;;;;5022832;28;20034;-73
2021/12/03 15:07:35;;;;;;;2.20;1.17;;;;;;;;;;5035623;28;20125;-72
2021/12/03 15:10:04;;;;;;;1.20;1.00;;;;;;;;;;5022830;28;20029;-72
2021/12/03 15:23:07;;;;;;;1.95;0.90;;;;;;;;;;5022165;28;20090;-73
2021/12/03 15:25:53;;;;;;;3.88;1.00;;;;;;;;;;5005119;28;20089;-70
2021/12/03 15:33:47;;;;;;;1.45;0.93;;;;;;;;;;5023666;28;20042;-73
2021/12/03 15:36:48;;;;;;;2.38;0.82;;;;;;;;;;5025960;28;20117;-71
2021/12/03 15:51:53;;;;;;;1.98;1.13;;;;;;;;;;5026712;28;20045;-71
2021/12/03 15:55:31;;;;;;;2.03;1.00;;;;;;;;;;5033177;28;19956;-72
2021/12/03 16:08:31;;;;;;;2.35;0.85;;;;;;;;;;5026390;28;20049;-71
2021/12/03 16:51:28;;;;;;;2.35;1.00;;;;;;;;;;5025125;28;20022;-72
2021/12/03 16:54:01;;;;;;;2.45;1.10;;;;;;;;;;5025198;28;20117;-74
2021/12/03 16:56:28;;;;;;;1.42;1.27;;;;;;;;;;5027762;28;20026;-72
2021/12/03 16:58:56;;;;;;;1.38;0.80;;;;;;;;;;5024383;28;20098;-72
2021/12/03 17:04:18;;;;;;;1.63;0.88;;;;;;;;;;5024756;28;20691;-73
2021/12/03 17:51:13;;;;;;;4.07;0.90;;;;;;;;;;5024533;28;20054;-73
2021/12/03 17:56:20;;;;;;;0.85;0.70;;;;;;;;;;5026669;28;20141;-73
2021/12/03 17:59:03;;;;;;;6.65;1.08;;;;;;;;;;5007184;28;20030;-72
2021/12/03 18:01:48;;;;;;;1.77;1.00;;;;;;;;;;5020433;28;20041;-73
2021/12/03 18:07:09;;;;;;;1.30;0.80;;;;;;;;;;5023605;28;20045;-74
2021/12/03 18:48:01;;;;;;;2.80;1.40;;;;;;;;;;5023320;28;20046;-74
2021/12/03 18:55:17;;;;;;;3.78;1.48;;;;;;;;;;5026839;28;20149;-74
2021/12/03 18:57:45;;;;;;;2.72;1.40;;;;;;;;;;5003155;28;20334;-74
2021/12/03 19:00:15;;;;;;;1.48;1.05;;;;;;;;;;5022405;28;20095;-74
2021/12/03 19:02:45;;;;;;;1.73;1.10;;;;;;;;;;5019663;28;20030;-73
2021/12/03 19:05:31;;;;;;;13.90;9.88;;;;;;;;;;5021955;28;20030;-73
2021/12/03 19:08:09;;;;;;;2.53;1.70;;;;;;;;;;5022262;28;20112;-74
2021/12/03 19:10:41;;;;;;;1.83;1.35;;;;;;;;;;5025507;28;20055;-73
2021/12/03 19:13:10;;;;;;;7.13;4.82;;;;;;;;;;5007656;28;20038;-75
2021/12/03 19:15:37;;;;;;;1.90;1.00;;;;;;;;;;5008456;28;20049;-74
2021/12/03 19:18:03;;;;;;;1.77;1.05;;;;;;;;;;5009282;28;20466;-73
2021/12/03 19:20:36;;;;;;;2.00;1.30;;;;;;;;;;5027099;28;20036;-74
2021/12/03 19:23:01;;;;;;;1.48;1.10;;;;;;;;;;5009545;28;20041;-74
2021/12/03 19:25:27;;;;;;;1.60;1.10;;;;;;;;;;5027313;28;20179;-73
2021/12/03 19:27:53;;;;;;;1.70;1.30;;;;;;;;;;5026935;28;20018;-73
2021/12/03 19:30:21;;;;;;;1.77;1.08;;;;;;;;;;5026877;28;20493;-74
2021/12/03 19:32:47;;;;;;;1.38;1.00;;;;;;;;;;5025985;28;20045;-74
2021/12/03 19:35:12;;;;;;;1.83;1.20;;;;;;;;;;5027117;28;20045;-73
2021/12/03 19:37:38;;;;;;;1.48;0.85;;;;;;;;;;5026252;28;20346;-74
2021/12/03 19:40:08;;;;;;;1.02;0.82;;;;;;;;;;5027181;28;20034;-74
2021/12/03 19:42:42;;;;;;;1.17;0.90;;;;;;;;;;5026691;28;20041;-74
2021/12/03 19:45:11;;;;;;;1.25;1.10;;;;;;;;;;5004256;28;20033;-73
2021/12/03 19:50:42;;;;;;;1.38;0.93;;;;;;;;;;5026119;28;20129;-75
2021/12/03 19:53:17;;;;;;;2.38;1.02;;;;;;;;;;5024942;28;20068;-74
2021/12/03 19:55:44;;;;;;;1.50;1.00;;;;;;;;;;5006884;28;20030;-74
2021/12/03 19:58:12;;;;;;;1.77;1.20;;;;;;;;;;5009277;28;20097;-74
2021/12/03 20:00:39;;;;;;;4.13;1.85;;;;;;;;;;5026489;28;20032;-75
2021/12/03 20:03:05;;;;;;;9.63;3.47;;;;;;;;;;5005659;28;20052;-73
2021/12/03 20:05:30;;;;;;;6.82;2.65;;;;;;;;;;5007347;28;21542;-74
2021/12/03 20:07:59;;;;;;;6.63;2.28;;;;;;;;;;5024628;28;20037;-75
2021/12/03 20:10:26;;;;;;;7.15;2.67;;;;;;;;;;5025019;28;20033;-71
2021/12/03 20:12:52;;;;;;;4.35;1.73;;;;;;;;;;5007929;28;20040;-73
2021/12/03 20:15:30;;;;;;;4.60;2.53;;;;;;;;;;5025971;28;20049;-74
2021/12/03 20:17:59;;;;;;;2.70;1.35;;;;;;;;;;5024865;28;20053;-74
2021/12/03 20:20:25;;;;;;;2.30;1.20;;;;;;;;;;5024574;28;20751;-74
2021/12/03 20:23:07;;;;;;;2.78;1.35;;;;;;;;;;5024984;28;20518;-74
2021/12/03 20:25:59;;;;;;;1.10;0.90;;;;;;;;;;5020832;28;20053;-71
2021/12/03 20:28:27;;;;;;;1.58;1.20;;;;;;;;;;5017768;28;20052;-74
2021/12/03 20:30:59;;;;;;;1.60;1.25;;;;;;;;;;5025573;28;20033;-72
2021/12/03 20:39:04;;;;;;;1.75;1.30;;;;;;;;;;4971083;28;20135;-73
2021/12/03 20:41:38;;;;;;;2.28;1.00;;;;;;;;;;5025616;28;20022;-73
2021/12/03 20:44:15;;;;;;;1.38;1.00;;;;;;;;;;5022773;28;20040;-72
2021/12/03 20:54:34;;;;;;;1.73;1.15;;;;;;;;;;5028712;28;19913;-71
2021/12/03 21:13:38;;;;;;;3.10;1.20;;;;;;;;;;5023695;28;19917;-73
2021/12/03 21:16:15;;;;;;;1.83;1.02;;;;;;;;;;5024477;28;20409;-71
2021/12/03 21:23:50;;;;;;;2.10;1.25;;;;;;;;;;5027668;28;20461;-71
2021/12/03 21:26:24;;;;;;;1.60;0.95;;;;;;;;;;5035660;28;20121;-72
2021/12/03 21:31:45;;;;;;;2.40;1.58;;;;;;;;;;5018163;28;20034;-74
2021/12/03 21:42:08;;;;;;;1.95;1.08;;;;;;;;;;5034674;28;19914;-72
2021/12/03 21:44:33;;;;;;;2.35;1.40;;;;;;;;;;5025972;28;20030;-73
2021/12/03 21:46:59;;;;;;;1.85;1.23;;;;;;;;;;5026635;28;20129;-71
2021/12/03 21:49:30;;;;;;;2.40;1.42;;;;;;;;;;5025751;28;20057;-72
2021/12/03 21:51:56;;;;;;;5.78;1.80;;;;;;;;;;5024740;28;20033;-72
2021/12/03 21:54:22;;;;;;;3.85;1.83;;;;;;;;;;5029443;28;20022;-71
2021/12/03 21:56:48;;;;;;;3.35;1.65;;;;;;;;;;5012344;28;20040;-75
2021/12/03 21:59:16;;;;;;;2.25;1.50;;;;;;;;;;5003542;28;20054;-75
2021/12/03 22:01:42;;;;;;;4.95;1.70;;;;;;;;;;5022925;28;20056;-74
2021/12/03 22:04:08;;;;;;;3.60;1.60;;;;;;;;;;5006199;28;20030;-75
2021/12/03 22:06:35;;;;;;;2.72;1.30;;;;;;;;;;5006180;28;20040;-71
2021/12/03 22:09:00;;;;;;;2.60;1.48;;;;;;;;;;5023083;28;20038;-72
2021/12/03 22:11:27;;;;;;;4.20;2.90;;;;;;;;;;5022985;28;20092;-71
2021/12/03 22:13:53;;;;;;;6.03;3.53;;;;;;;;;;5005607;28;20040;-72
2021/12/03 22:16:19;;;;;;;5.88;2.95;;;;;;;;;;5021834;28;20057;-75
2021/12/03 22:18:47;;;;;;;4.10;1.90;;;;;;;;;;5022453;28;20026;-73
2021/12/03 22:21:17;;;;;;;3.10;1.67;;;;;;;;;;5023997;28;20053;-73
2021/12/03 22:23:43;;;;;;;2.17;1.52;;;;;;;;;;5005543;28;20033;-73
2021/12/03 22:26:11;;;;;;;3.03;1.67;;;;;;;;;;5023588;28;20044;-74
2021/12/03 22:28:37;;;;;;;2.75;1.80;;;;;;;;;;5023383;28;20034;-73
2021/12/03 22:31:03;;;;;;;2.17;1.50;;;;;;;;;;5022683;28;20054;-76
2021/12/03 22:33:29;;;;;;;3.58;1.70;;;;;;;;;;5004435;28;20025;-72
2021/12/03 22:35:55;;;;;;;3.05;1.50;;;;;;;;;;5003819;28;20105;-73
2021/12/03 22:38:22;;;;;;;2.85;1.58;;;;;;;;;;5022187;28;20069;-73
2021/12/03 22:40:49;;;;;;;2.33;1.25;;;;;;;;;;5027036;28;20089;-72
2021/12/03 22:43:15;;;;;;;2.03;1.33;;;;;;;;;;5020022;28;20041;-71
2021/12/03 22:45:59;;;;;;;2.30;1.40;;;;;;;;;;5021762;28;20033;-73
2021/12/03 22:50:59;;;;;;;2.13;1.50;;;;;;;;;;5022683;28;20092;-71
2021/12/03 22:53:25;;;;;;;1.95;1.20;;;;;;;;;;5021813;28;20049;-72
2021/12/03 22:55:51;;;;;;;2.38;1.38;;;;;;;;;;5021132;28;20041;-72
2021/12/03 22:58:16;;;;;;;2.75;1.40;;;;;;;;;;4998043;28;20030;-73
2021/12/03 23:00:45;;;;;;;1.50;1.00;;;;;;;;;;5012966;28;20029;-73
2021/12/03 23:03:14;;;;;;;1.70;1.02;;;;;;;;;;5020360;28;20129;-73
2021/12/03 23:05:42;;;;;;;2.80;1.23;;;;;;;;;;5016467;28;20072;-72
2021/12/03 23:08:08;;;;;;;1.58;0.90;;;;;;;;;;5021973;28;20102;-73
2021/12/03 23:10:34;;;;;;;3.45;1.38;;;;;;;;;;5019802;28;20137;-74
2021/12/03 23:13:01;;;;;;;1.65;1.05;;;;;;;;;;5001933;28;20026;-75
2021/12/03 23:15:26;;;;;;;2.53;1.40;;;;;;;;;;5003226;28;20030;-74
2021/12/03 23:17:54;;;;;;;1.20;0.93;;;;;;;;;;5020799;28;20030;-74
2021/12/03 23:20:20;;;;;;;1.80;1.02;;;;;;;;;;5021072;28;20049;-74
2021/12/03 23:22:46;;;;;;;1.75;0.98;;;;;;;;;;5020767;28;20037;-72
2021/12/03 23:25:14;;;;;;;1.95;1.10;;;;;;;;;;5021135;28;20038;-72
2021/12/03 23:27:40;;;;;;;2.42;1.30;;;;;;;;;;5003780;28;20112;-72